sensor_id;sensor_type;location;lat;lon;timestamp;P1;durP1;ratioP1;P2;durP2;ratioP2
47804;SDS011;33568;45.286;9.900;2022-08-05T00:02:21;8.90;;;2.97;;
47804;SDS011;33568;45.286;9.900;2022-08-05T00:04:47;7.07;;;3.20;;
47804;SDS011;33568;45.286;9.900;2022-08-05T00:07:14;11.10;;;3.17;;
47804;SDS011;33568;45.286;9.900;2022-08-05T00:09:41;6.07;;;2.90;;
47804;SDS011;33568;45.286;9.900;2022-08-05T00:12:08;7.32;;;3.35;;
47804;SDS011;33568;45.286;9.900;2022-08-05T00:14:35;6.82;;;3.00;;
47804;SDS011;33568;45.286;9.900;2022-08-05T00:17:02;8.23;;;3.30;;
47804;SDS011;33568;45.286;9.900;2022-08-05T00:19:29;7.95;;;2.90;;
47804;SDS011;33568;45.286;9.900;2022-08-05T00:21:57;6.50;;;3.30;;
47804;SDS011;33568;45.286;9.900;2022-08-05T00:24:23;8.20;;;3.30;;
47804;SDS011;33568;45.286;9.900;2022-08-05T00:26:49;4.88;;;3.35;;
47804;SDS011;33568;45.286;9.900;2022-08-05T00:29:16;8.45;;;3.33;;
47804;SDS011;33568;45.286;9.900;2022-08-05T00:31:43;7.38;;;2.85;;
47804;SDS011;33568;45.286;9.900;2022-08-05T00:34:09;4.90;;;2.70;;
47804;SDS011;33568;45.286;9.900;2022-08-05T00:36:36;5.88;;;3.03;;
47804;SDS011;33568;45.286;9.900;2022-08-05T00:39:03;8.13;;;4.20;;
47804;SDS011;33568;45.286;9.900;2022-08-05T00:41:30;6.88;;;2.67;;
47804;SDS011;33568;45.286;9.900;2022-08-05T00:44:00;8.60;;;3.33;;
47804;SDS011;33568;45.286;9.900;2022-08-05T00:46:26;7.03;;;3.28;;
47804;SDS011;33568;45.286;9.900;2022-08-05T00:48:53;5.17;;;2.57;;
47804;SDS011;33568;45.286;9.900;2022-08-05T00:51:21;6.50;;;2.78;;
47804;SDS011;33568;45.286;9.900;2022-08-05T00:53:48;5.55;;;2.90;;
47804;SDS011;33568;45.286;9.900;2022-08-05T00:56:15;8.35;;;2.95;;
47804;SDS011;33568;45.286;9.900;2022-08-05T00:58:42;3.75;;;2.78;;
47804;SDS011;33568;45.286;9.900;2022-08-05T01:01:10;7.55;;;3.10;;
47804;SDS011;33568;45.286;9.900;2022-08-05T01:03:38;7.15;;;2.80;;
47804;SDS011;33568;45.286;9.900;2022-08-05T01:06:05;6.68;;;2.95;;
47804;SDS011;33568;45.286;9.900;2022-08-05T01:08:32;4.68;;;2.97;;
47804;SDS011;33568;45.286;9.900;2022-08-05T01:11:01;5.20;;;2.95;;
47804;SDS011;33568;45.286;9.900;2022-08-05T01:16:28;6.25;;;2.45;;
47804;SDS011;33568;45.286;9.900;2022-08-05T01:19:10;4.07;;;2.78;;
47804;SDS011;33568;45.286;9.900;2022-08-05T01:30:25;7.35;;;2.60;;
47804;SDS011;33568;45.286;9.900;2022-08-05T01:32:56;4.57;;;2.90;;
47804;SDS011;33568;45.286;9.900;2022-08-05T01:35:25;7.78;;;3.40;;
47804;SDS011;33568;45.286;9.900;2022-08-05T01:37:55;5.50;;;3.10;;
47804;SDS011;33568;45.286;9.900;2022-08-05T01:40:25;4.28;;;2.90;;
47804;SDS011;33568;45.286;9.900;2022-08-05T01:42:54;5.22;;;2.75;;
47804;SDS011;33568;45.286;9.900;2022-08-05T01:45:23;6.05;;;2.35;;
47804;SDS011;33568;45.286;9.900;2022-08-05T01:47:52;7.03;;;2.95;;
47804;SDS011;33568;45.286;9.900;2022-08-05T01:50:22;9.15;;;3.70;;
47804;SDS011;33568;45.286;9.900;2022-08-05T01:52:51;6.65;;;3.10;;
47804;SDS011;33568;45.286;9.900;2022-08-05T01:55:21;4.78;;;2.63;;
47804;SDS011;33568;45.286;9.900;2022-08-05T01:57:50;5.88;;;2.75;;
47804;SDS011;33568;45.286;9.900;2022-08-05T02:00:18;7.18;;;2.90;;
47804;SDS011;33568;45.286;9.900;2022-08-05T02:02:47;2.92;;;2.40;;
47804;SDS011;33568;45.286;9.900;2022-08-05T02:05:21;5.00;;;2.67;;
47804;SDS011;33568;45.286;9.900;2022-08-05T02:07:55;9.50;;;3.22;;
47804;SDS011;33568;45.286;9.900;2022-08-05T02:10:25;6.15;;;2.70;;
47804;SDS011;33568;45.286;9.900;2022-08-05T02:12:54;6.85;;;2.90;;
47804;SDS011;33568;45.286;9.900;2022-08-05T02:15:27;7.05;;;2.97;;
47804;SDS011;33568;45.286;9.900;2022-08-05T02:20:54;7.68;;;2.60;;
47804;SDS011;33568;45.286;9.900;2022-08-05T02:23:30;3.58;;;2.33;;
47804;SDS011;33568;45.286;9.900;2022-08-05T02:26:01;3.42;;;2.20;;
47804;SDS011;33568;45.286;9.900;2022-08-05T02:28:30;5.05;;;2.70;;
47804;SDS011;33568;45.286;9.900;2022-08-05T02:31:01;5.18;;;2.72;;
47804;SDS011;33568;45.286;9.900;2022-08-05T02:33:35;5.03;;;2.70;;
47804;SDS011;33568;45.286;9.900;2022-08-05T02:36:04;4.15;;;2.53;;
47804;SDS011;33568;45.286;9.900;2022-08-05T02:38:33;3.60;;;2.42;;
47804;SDS011;33568;45.286;9.900;2022-08-05T02:41:01;5.20;;;2.58;;
47804;SDS011;33568;45.286;9.900;2022-08-05T02:43:28;2.90;;;2.20;;
47804;SDS011;33568;45.286;9.900;2022-08-05T02:45:57;5.70;;;2.90;;
47804;SDS011;33568;45.286;9.900;2022-08-05T02:48:24;3.35;;;2.40;;
47804;SDS011;33568;45.286;9.900;2022-08-05T02:50:52;7.03;;;2.78;;
47804;SDS011;33568;45.286;9.900;2022-08-05T02:53:19;7.13;;;2.70;;
47804;SDS011;33568;45.286;9.900;2022-08-05T02:55:47;7.75;;;2.78;;
47804;SDS011;33568;45.286;9.900;2022-08-05T02:58:15;4.80;;;2.80;;
47804;SDS011;33568;45.286;9.900;2022-08-05T03:00:45;5.68;;;2.65;;
47804;SDS011;33568;45.286;9.900;2022-08-05T03:03:15;3.78;;;2.58;;
47804;SDS011;33568;45.286;9.900;2022-08-05T03:05:44;3.22;;;2.40;;
47804;SDS011;33568;45.286;9.900;2022-08-05T03:08:12;3.55;;;2.67;;
47804;SDS011;33568;45.286;9.900;2022-08-05T03:10:43;4.03;;;3.20;;
47804;SDS011;33568;45.286;9.900;2022-08-05T03:13:11;5.20;;;2.65;;
47804;SDS011;33568;45.286;9.900;2022-08-05T03:15:45;6.82;;;2.92;;
47804;SDS011;33568;45.286;9.900;2022-08-05T03:18:13;4.60;;;3.38;;
47804;SDS011;33568;45.286;9.900;2022-08-05T03:20:39;6.72;;;2.55;;
47804;SDS011;33568;45.286;9.900;2022-08-05T03:23:07;4.55;;;3.30;;
47804;SDS011;33568;45.286;9.900;2022-08-05T03:25:35;5.50;;;2.58;;
47804;SDS011;33568;45.286;9.900;2022-08-05T03:28:05;4.38;;;2.85;;
47804;SDS011;33568;45.286;9.900;2022-08-05T03:30:33;3.13;;;2.50;;
47804;SDS011;33568;45.286;9.900;2022-08-05T03:33:00;3.90;;;2.58;;
47804;SDS011;33568;45.286;9.900;2022-08-05T03:35:28;4.53;;;2.92;;
47804;SDS011;33568;45.286;9.900;2022-08-05T03:37:56;4.05;;;2.95;;
47804;SDS011;33568;45.286;9.900;2022-08-05T03:40:23;4.10;;;2.83;;
47804;SDS011;33568;45.286;9.900;2022-08-05T03:42:49;3.95;;;2.78;;
47804;SDS011;33568;45.286;9.900;2022-08-05T03:45:16;10.13;;;6.53;;
47804;SDS011;33568;45.286;9.900;2022-08-05T03:47:42;13.55;;;7.68;;
47804;SDS011;33568;45.286;9.900;2022-08-05T03:50:08;20.02;;;8.93;;
47804;SDS011;33568;45.286;9.900;2022-08-05T03:53:10;13.40;;;8.52;;
47804;SDS011;33568;45.286;9.900;2022-08-05T03:55:34;12.57;;;8.27;;
47804;SDS011;33568;45.286;9.900;2022-08-05T03:58:04;10.07;;;8.52;;
47804;SDS011;33568;45.286;9.900;2022-08-05T04:00:37;16.67;;;8.30;;
47804;SDS011;33568;45.286;9.900;2022-08-05T04:03:05;16.92;;;8.55;;
47804;SDS011;33568;45.286;9.900;2022-08-05T04:05:33;11.05;;;7.65;;
47804;SDS011;33568;45.286;9.900;2022-08-05T04:08:01;14.48;;;8.50;;
47804;SDS011;33568;45.286;9.900;2022-08-05T04:10:30;10.40;;;7.95;;
47804;SDS011;33568;45.286;9.900;2022-08-05T04:12:58;16.10;;;7.95;;
47804;SDS011;33568;45.286;9.900;2022-08-05T04:15:25;11.25;;;7.95;;
47804;SDS011;33568;45.286;9.900;2022-08-05T04:17:53;10.05;;;7.78;;
47804;SDS011;33568;45.286;9.900;2022-08-05T04:20:20;15.48;;;8.40;;
47804;SDS011;33568;45.286;9.900;2022-08-05T04:22:47;16.10;;;7.63;;
47804;SDS011;33568;45.286;9.900;2022-08-05T04:25:14;14.82;;;8.07;;
47804;SDS011;33568;45.286;9.900;2022-08-05T04:27:41;12.45;;;7.25;;
47804;SDS011;33568;45.286;9.900;2022-08-05T04:30:07;13.50;;;7.88;;
47804;SDS011;33568;45.286;9.900;2022-08-05T04:32:35;10.93;;;8.77;;
47804;SDS011;33568;45.286;9.900;2022-08-05T04:35:02;24.30;;;10.52;;
47804;SDS011;33568;45.286;9.900;2022-08-05T04:37:28;19.80;;;9.98;;
47804;SDS011;33568;45.286;9.900;2022-08-05T04:39:56;22.95;;;11.35;;
47804;SDS011;33568;45.286;9.900;2022-08-05T04:42:23;18.08;;;11.38;;
47804;SDS011;33568;45.286;9.900;2022-08-05T04:44:49;16.60;;;11.77;;
47804;SDS011;33568;45.286;9.900;2022-08-05T04:47:16;15.90;;;11.82;;
47804;SDS011;33568;45.286;9.900;2022-08-05T04:49:45;15.38;;;10.98;;
47804;SDS011;33568;45.286;9.900;2022-08-05T04:52:11;19.88;;;11.70;;
47804;SDS011;33568;45.286;9.900;2022-08-05T04:54:38;15.45;;;12.38;;
47804;SDS011;33568;45.286;9.900;2022-08-05T04:57:05;15.98;;;12.73;;
47804;SDS011;33568;45.286;9.900;2022-08-05T04:59:31;18.75;;;11.18;;
47804;SDS011;33568;45.286;9.900;2022-08-05T05:01:58;13.52;;;11.77;;
47804;SDS011;33568;45.286;9.900;2022-08-05T05:04:24;17.23;;;10.05;;
47804;SDS011;33568;45.286;9.900;2022-08-05T05:06:51;17.25;;;11.13;;
47804;SDS011;33568;45.286;9.900;2022-08-05T05:09:17;13.18;;;10.30;;
47804;SDS011;33568;45.286;9.900;2022-08-05T05:11:44;10.25;;;9.25;;
47804;SDS011;33568;45.286;9.900;2022-08-05T05:14:12;13.23;;;9.18;;
47804;SDS011;33568;45.286;9.900;2022-08-05T05:16:38;12.38;;;8.98;;
47804;SDS011;33568;45.286;9.900;2022-08-05T05:19:05;16.48;;;10.40;;
47804;SDS011;33568;45.286;9.900;2022-08-05T05:21:31;10.23;;;8.57;;
47804;SDS011;33568;45.286;9.900;2022-08-05T05:23:57;15.40;;;9.10;;
47804;SDS011;33568;45.286;9.900;2022-08-05T05:26:24;12.27;;;9.98;;
47804;SDS011;33568;45.286;9.900;2022-08-05T05:28:50;12.95;;;8.70;;
47804;SDS011;33568;45.286;9.900;2022-08-05T05:31:16;19.10;;;10.88;;
47804;SDS011;33568;45.286;9.900;2022-08-05T05:33:43;11.57;;;9.32;;
47804;SDS011;33568;45.286;9.900;2022-08-05T05:36:10;25.38;;;9.07;;
47804;SDS011;33568;45.286;9.900;2022-08-05T05:38:36;13.40;;;8.40;;
47804;SDS011;33568;45.286;9.900;2022-08-05T05:41:02;12.18;;;8.80;;
47804;SDS011;33568;45.286;9.900;2022-08-05T05:43:29;19.65;;;9.13;;
47804;SDS011;33568;45.286;9.900;2022-08-05T05:45:56;19.30;;;8.73;;
47804;SDS011;33568;45.286;9.900;2022-08-05T05:48:22;17.40;;;10.32;;
47804;SDS011;33568;45.286;9.900;2022-08-05T05:50:50;10.15;;;7.82;;
47804;SDS011;33568;45.286;9.900;2022-08-05T05:53:17;10.45;;;7.70;;
47804;SDS011;33568;45.286;9.900;2022-08-05T05:55:44;14.07;;;8.02;;
47804;SDS011;33568;45.286;9.900;2022-08-05T05:58:11;17.80;;;6.97;;
47804;SDS011;33568;45.286;9.900;2022-08-05T06:00:37;14.85;;;7.88;;
47804;SDS011;33568;45.286;9.900;2022-08-05T06:03:04;14.10;;;7.68;;
47804;SDS011;33568;45.286;9.900;2022-08-05T06:05:30;10.23;;;7.53;;
47804;SDS011;33568;45.286;9.900;2022-08-05T06:07:56;10.05;;;6.40;;
47804;SDS011;33568;45.286;9.900;2022-08-05T06:10:23;10.98;;;6.75;;
47804;SDS011;33568;45.286;9.900;2022-08-05T06:12:49;10.05;;;6.82;;
47804;SDS011;33568;45.286;9.900;2022-08-05T06:15:16;11.52;;;6.80;;
47804;SDS011;33568;45.286;9.900;2022-08-05T06:17:42;19.00;;;6.82;;
47804;SDS011;33568;45.286;9.900;2022-08-05T06:20:08;12.20;;;8.43;;
47804;SDS011;33568;45.286;9.900;2022-08-05T06:22:35;13.77;;;6.35;;
47804;SDS011;33568;45.286;9.900;2022-08-05T06:25:02;12.23;;;6.40;;
47804;SDS011;33568;45.286;9.900;2022-08-05T06:27:33;13.30;;;5.82;;
47804;SDS011;33568;45.286;9.900;2022-08-05T06:30:00;8.27;;;5.85;;
47804;SDS011;33568;45.286;9.900;2022-08-05T06:32:28;13.38;;;7.15;;
47804;SDS011;33568;45.286;9.900;2022-08-05T06:34:57;10.38;;;8.23;;
47804;SDS011;33568;45.286;9.900;2022-08-05T06:37:25;15.20;;;9.02;;
47804;SDS011;33568;45.286;9.900;2022-08-05T06:39:52;13.55;;;8.40;;
47804;SDS011;33568;45.286;9.900;2022-08-05T06:42:18;8.80;;;5.65;;
47804;SDS011;33568;45.286;9.900;2022-08-05T06:44:45;12.48;;;4.57;;
47804;SDS011;33568;45.286;9.900;2022-08-05T06:47:11;10.90;;;4.97;;
47804;SDS011;33568;45.286;9.900;2022-08-05T06:49:37;11.90;;;4.55;;
47804;SDS011;33568;45.286;9.900;2022-08-05T06:52:04;6.68;;;5.55;;
47804;SDS011;33568;45.286;9.900;2022-08-05T06:54:30;9.95;;;5.80;;
47804;SDS011;33568;45.286;9.900;2022-08-05T06:56:56;12.90;;;4.47;;
47804;SDS011;33568;45.286;9.900;2022-08-05T06:59:23;7.90;;;4.55;;
47804;SDS011;33568;45.286;9.900;2022-08-05T07:01:49;6.18;;;3.88;;
47804;SDS011;33568;45.286;9.900;2022-08-05T07:04:17;9.45;;;5.57;;
47804;SDS011;33568;45.286;9.900;2022-08-05T07:06:44;9.25;;;4.43;;
47804;SDS011;33568;45.286;9.900;2022-08-05T07:09:10;5.15;;;4.20;;
47804;SDS011;33568;45.286;9.900;2022-08-05T07:11:36;9.68;;;6.68;;
47804;SDS011;33568;45.286;9.900;2022-08-05T07:14:05;10.50;;;5.00;;
47804;SDS011;33568;45.286;9.900;2022-08-05T07:16:50;12.98;;;6.57;;
47804;SDS011;33568;45.286;9.900;2022-08-05T07:19:17;10.63;;;7.05;;
47804;SDS011;33568;45.286;9.900;2022-08-05T07:21:45;5.97;;;4.07;;
47804;SDS011;33568;45.286;9.900;2022-08-05T07:24:14;10.48;;;4.70;;
47804;SDS011;33568;45.286;9.900;2022-08-05T07:26:41;6.53;;;4.43;;
47804;SDS011;33568;45.286;9.900;2022-08-05T07:29:08;9.80;;;7.30;;
47804;SDS011;33568;45.286;9.900;2022-08-05T07:31:34;14.75;;;6.88;;
47804;SDS011;33568;45.286;9.900;2022-08-05T07:34:01;10.80;;;6.18;;
47804;SDS011;33568;45.286;9.900;2022-08-05T07:36:28;8.98;;;7.22;;
47804;SDS011;33568;45.286;9.900;2022-08-05T07:38:55;13.48;;;6.93;;
47804;SDS011;33568;45.286;9.900;2022-08-05T07:41:22;10.15;;;7.20;;
47804;SDS011;33568;45.286;9.900;2022-08-05T07:43:49;12.68;;;6.53;;
47804;SDS011;33568;45.286;9.900;2022-08-05T07:46:16;8.38;;;3.60;;
47804;SDS011;33568;45.286;9.900;2022-08-05T07:48:42;6.63;;;5.78;;
47804;SDS011;33568;45.286;9.900;2022-08-05T07:51:08;13.45;;;4.72;;
47804;SDS011;33568;45.286;9.900;2022-08-05T07:53:35;5.57;;;3.92;;
47804;SDS011;33568;45.286;9.900;2022-08-05T07:56:02;5.72;;;4.30;;
47804;SDS011;33568;45.286;9.900;2022-08-05T07:58:29;15.68;;;6.30;;
47804;SDS011;33568;45.286;9.900;2022-08-05T08:00:55;13.98;;;6.15;;
47804;SDS011;33568;45.286;9.900;2022-08-05T08:03:22;19.35;;;5.75;;
47804;SDS011;33568;45.286;9.900;2022-08-05T08:05:50;10.88;;;5.60;;
47804;SDS011;33568;45.286;9.900;2022-08-05T08:08:17;11.82;;;5.35;;
47804;SDS011;33568;45.286;9.900;2022-08-05T08:10:47;8.52;;;4.40;;
47804;SDS011;33568;45.286;9.900;2022-08-05T08:13:14;10.40;;;4.50;;
47804;SDS011;33568;45.286;9.900;2022-08-05T08:15:41;9.10;;;3.70;;
47804;SDS011;33568;45.286;9.900;2022-08-05T08:18:07;15.95;;;5.35;;
47804;SDS011;33568;45.286;9.900;2022-08-05T08:20:33;12.20;;;5.65;;
47804;SDS011;33568;45.286;9.900;2022-08-05T08:23:00;15.02;;;4.85;;
47804;SDS011;33568;45.286;9.900;2022-08-05T08:25:27;15.52;;;3.85;;
47804;SDS011;33568;45.286;9.900;2022-08-05T08:27:54;7.85;;;4.32;;
47804;SDS011;33568;45.286;9.900;2022-08-05T08:30:21;11.23;;;4.90;;
47804;SDS011;33568;45.286;9.900;2022-08-05T08:32:48;10.50;;;4.22;;
47804;SDS011;33568;45.286;9.900;2022-08-05T08:35:15;11.65;;;4.65;;
47804;SDS011;33568;45.286;9.900;2022-08-05T08:37:41;13.68;;;4.70;;
47804;SDS011;33568;45.286;9.900;2022-08-05T08:40:08;13.82;;;3.83;;
47804;SDS011;33568;45.286;9.900;2022-08-05T08:42:36;14.05;;;4.93;;
47804;SDS011;33568;45.286;9.900;2022-08-05T08:45:04;8.23;;;3.53;;
47804;SDS011;33568;45.286;9.900;2022-08-05T08:47:32;11.18;;;4.70;;
47804;SDS011;33568;45.286;9.900;2022-08-05T08:50:02;19.85;;;5.05;;
47804;SDS011;33568;45.286;9.900;2022-08-05T08:52:30;10.13;;;4.40;;
47804;SDS011;33568;45.286;9.900;2022-08-05T08:54:58;10.60;;;4.03;;
47804;SDS011;33568;45.286;9.900;2022-08-05T08:57:24;7.50;;;4.00;;
47804;SDS011;33568;45.286;9.900;2022-08-05T08:59:51;11.85;;;3.63;;
47804;SDS011;33568;45.286;9.900;2022-08-05T09:02:20;13.52;;;3.60;;
47804;SDS011;33568;45.286;9.900;2022-08-05T09:04:48;16.00;;;4.60;;
47804;SDS011;33568;45.286;9.900;2022-08-05T09:07:19;9.90;;;4.00;;
47804;SDS011;33568;45.286;9.900;2022-08-05T09:09:45;18.20;;;4.38;;
47804;SDS011;33568;45.286;9.900;2022-08-05T09:12:11;9.98;;;3.78;;
47804;SDS011;33568;45.286;9.900;2022-08-05T09:14:38;10.52;;;3.60;;
47804;SDS011;33568;45.286;9.900;2022-08-05T09:17:08;12.07;;;3.60;;
47804;SDS011;33568;45.286;9.900;2022-08-05T09:19:37;8.32;;;3.28;;
47804;SDS011;33568;45.286;9.900;2022-08-05T09:22:03;11.32;;;3.60;;
47804;SDS011;33568;45.286;9.900;2022-08-05T09:24:30;16.63;;;3.67;;
47804;SDS011;33568;45.286;9.900;2022-08-05T09:26:57;11.55;;;3.45;;
47804;SDS011;33568;45.286;9.900;2022-08-05T09:29:36;13.38;;;3.15;;
47804;SDS011;33568;45.286;9.900;2022-08-05T09:32:06;7.03;;;2.90;;
47804;SDS011;33568;45.286;9.900;2022-08-05T09:34:53;10.80;;;3.22;;
47804;SDS011;33568;45.286;9.900;2022-08-05T09:37:21;13.15;;;4.10;;
47804;SDS011;33568;45.286;9.900;2022-08-05T09:39:50;5.57;;;2.78;;
47804;SDS011;33568;45.286;9.900;2022-08-05T09:42:18;9.43;;;3.40;;
47804;SDS011;33568;45.286;9.900;2022-08-05T09:44:46;12.35;;;2.97;;
47804;SDS011;33568;45.286;9.900;2022-08-05T09:47:15;10.60;;;3.40;;
47804;SDS011;33568;45.286;9.900;2022-08-05T09:52:27;10.27;;;3.20;;
47804;SDS011;33568;45.286;9.900;2022-08-05T09:54:55;9.32;;;3.28;;
47804;SDS011;33568;45.286;9.900;2022-08-05T09:57:37;12.68;;;3.10;;
47804;SDS011;33568;45.286;9.900;2022-08-05T10:00:09;9.55;;;2.70;;
47804;SDS011;33568;45.286;9.900;2022-08-05T10:02:40;15.77;;;3.13;;
47804;SDS011;33568;45.286;9.900;2022-08-05T10:05:12;7.30;;;2.75;;
47804;SDS011;33568;45.286;9.900;2022-08-05T10:07:41;10.07;;;2.60;;
47804;SDS011;33568;45.286;9.900;2022-08-05T10:10:14;15.15;;;2.70;;
47804;SDS011;33568;45.286;9.900;2022-08-05T10:12:42;17.10;;;2.92;;
47804;SDS011;33568;45.286;9.900;2022-08-05T10:18:00;10.82;;;2.40;;
47804;SDS011;33568;45.286;9.900;2022-08-05T10:20:28;9.60;;;2.60;;
47804;SDS011;33568;45.286;9.900;2022-08-05T10:22:56;14.05;;;2.50;;
47804;SDS011;33568;45.286;9.900;2022-08-05T10:25:23;15.35;;;2.60;;
47804;SDS011;33568;45.286;9.900;2022-08-05T10:27:49;13.55;;;2.92;;
47804;SDS011;33568;45.286;9.900;2022-08-05T10:30:18;4.30;;;1.88;;
47804;SDS011;33568;45.286;9.900;2022-08-05T10:32:45;10.30;;;2.63;;
47804;SDS011;33568;45.286;9.900;2022-08-05T10:35:14;14.10;;;2.70;;
47804;SDS011;33568;45.286;9.900;2022-08-05T10:37:41;12.85;;;2.58;;
47804;SDS011;33568;45.286;9.900;2022-08-05T10:40:43;8.80;;;2.55;;
47804;SDS011;33568;45.286;9.900;2022-08-05T10:46:04;7.18;;;2.10;;
47804;SDS011;33568;45.286;9.900;2022-08-05T10:48:36;9.15;;;2.00;;
47804;SDS011;33568;45.286;9.900;2022-08-05T10:51:12;6.22;;;2.15;;
47804;SDS011;33568;45.286;9.900;2022-08-05T10:56:16;8.10;;;2.20;;
47804;SDS011;33568;45.286;9.900;2022-08-05T11:01:15;5.57;;;2.42;;
47804;SDS011;33568;45.286;9.900;2022-08-05T11:06:32;7.70;;;2.08;;
47804;SDS011;33568;45.286;9.900;2022-08-05T11:09:10;8.52;;;2.60;;
47804;SDS011;33568;45.286;9.900;2022-08-05T11:11:38;10.32;;;2.22;;
47804;SDS011;33568;45.286;9.900;2022-08-05T11:14:06;5.72;;;2.50;;
47804;SDS011;33568;45.286;9.900;2022-08-05T11:16:35;6.35;;;2.30;;
47804;SDS011;33568;45.286;9.900;2022-08-05T11:21:55;8.00;;;2.40;;
47804;SDS011;33568;45.286;9.900;2022-08-05T11:24:42;17.70;;;2.83;;
47804;SDS011;33568;45.286;9.900;2022-08-05T11:30:05;5.50;;;2.30;;
47804;SDS011;33568;45.286;9.900;2022-08-05T11:32:32;7.05;;;2.55;;
47804;SDS011;33568;45.286;9.900;2022-08-05T11:34:59;5.07;;;1.90;;
47804;SDS011;33568;45.286;9.900;2022-08-05T11:40:06;14.15;;;2.20;;
47804;SDS011;33568;45.286;9.900;2022-08-05T11:42:33;7.20;;;2.28;;
47804;SDS011;33568;45.286;9.900;2022-08-05T11:45:03;8.02;;;2.15;;
47804;SDS011;33568;45.286;9.900;2022-08-05T11:47:31;11.63;;;2.35;;
47804;SDS011;33568;45.286;9.900;2022-08-05T11:50:00;9.50;;;2.08;;
47804;SDS011;33568;45.286;9.900;2022-08-05T11:52:28;9.00;;;2.25;;
47804;SDS011;33568;45.286;9.900;2022-08-05T11:54:56;9.60;;;2.28;;
47804;SDS011;33568;45.286;9.900;2022-08-05T11:57:28;11.27;;;2.10;;
47804;SDS011;33568;45.286;9.900;2022-08-05T11:59:56;13.75;;;2.55;;
47804;SDS011;33568;45.286;9.900;2022-08-05T12:02:24;10.60;;;2.30;;
47804;SDS011;33568;45.286;9.900;2022-08-05T12:04:52;7.38;;;1.98;;
47804;SDS011;33568;45.286;9.900;2022-08-05T12:07:18;8.25;;;1.98;;
47804;SDS011;33568;45.286;9.900;2022-08-05T12:09:48;7.45;;;2.40;;
47804;SDS011;33568;45.286;9.900;2022-08-05T12:12:22;11.07;;;2.30;;
47804;SDS011;33568;45.286;9.900;2022-08-05T12:14:50;6.32;;;2.30;;
47804;SDS011;33568;45.286;9.900;2022-08-05T12:17:17;8.70;;;1.77;;
47804;SDS011;33568;45.286;9.900;2022-08-05T12:19:51;9.65;;;1.73;;
47804;SDS011;33568;45.286;9.900;2022-08-05T12:22:20;9.27;;;2.00;;
47804;SDS011;33568;45.286;9.900;2022-08-05T12:24:51;2.92;;;1.55;;
47804;SDS011;33568;45.286;9.900;2022-08-05T12:27:21;5.93;;;2.20;;
47804;SDS011;33568;45.286;9.900;2022-08-05T12:32:42;11.65;;;2.20;;
47804;SDS011;33568;45.286;9.900;2022-08-05T12:37:40;6.50;;;2.00;;
47804;SDS011;33568;45.286;9.900;2022-08-05T12:40:10;4.38;;;1.98;;
47804;SDS011;33568;45.286;9.900;2022-08-05T12:42:37;6.18;;;1.80;;
47804;SDS011;33568;45.286;9.900;2022-08-05T12:45:06;5.97;;;1.92;;
47804;SDS011;33568;45.286;9.900;2022-08-05T12:47:33;7.15;;;1.98;;
47804;SDS011;33568;45.286;9.900;2022-08-05T12:50:11;6.55;;;1.75;;
47804;SDS011;33568;45.286;9.900;2022-08-05T12:52:41;7.55;;;1.88;;
47804;SDS011;33568;45.286;9.900;2022-08-05T12:55:25;4.43;;;1.70;;
47804;SDS011;33568;45.286;9.900;2022-08-05T12:57:53;6.93;;;2.20;;
47804;SDS011;33568;45.286;9.900;2022-08-05T13:00:23;8.68;;;2.00;;
47804;SDS011;33568;45.286;9.900;2022-08-05T13:02:53;4.95;;;1.67;;
47804;SDS011;33568;45.286;9.900;2022-08-05T13:05:22;5.95;;;2.22;;
47804;SDS011;33568;45.286;9.900;2022-08-05T13:07:49;4.57;;;1.90;;
47804;SDS011;33568;45.286;9.900;2022-08-05T13:10:16;5.57;;;2.08;;
47804;SDS011;33568;45.286;9.900;2022-08-05T13:12:43;4.05;;;1.90;;
47804;SDS011;33568;45.286;9.900;2022-08-05T13:15:11;4.22;;;1.88;;
47804;SDS011;33568;45.286;9.900;2022-08-05T13:17:38;5.47;;;1.70;;
47804;SDS011;33568;45.286;9.900;2022-08-05T13:20:12;4.70;;;1.90;;
47804;SDS011;33568;45.286;9.900;2022-08-05T13:22:40;9.75;;;2.10;;
47804;SDS011;33568;45.286;9.900;2022-08-05T13:25:11;10.32;;;2.10;;
47804;SDS011;33568;45.286;9.900;2022-08-05T13:28:02;6.90;;;2.22;;
47804;SDS011;33568;45.286;9.900;2022-08-05T13:30:30;35.38;;;2.70;;
47804;SDS011;33568;45.286;9.900;2022-08-05T13:32:56;7.50;;;1.85;;
47804;SDS011;33568;45.286;9.900;2022-08-05T13:35:24;6.05;;;1.98;;
47804;SDS011;33568;45.286;9.900;2022-08-05T13:37:51;5.82;;;1.90;;
47804;SDS011;33568;45.286;9.900;2022-08-05T13:40:17;7.45;;;1.77;;
47804;SDS011;33568;45.286;9.900;2022-08-05T13:42:44;5.03;;;1.90;;
47804;SDS011;33568;45.286;9.900;2022-08-05T13:45:10;7.65;;;1.90;;
47804;SDS011;33568;45.286;9.900;2022-08-05T13:47:37;4.05;;;1.92;;
47804;SDS011;33568;45.286;9.900;2022-08-05T13:50:04;3.95;;;1.75;;
47804;SDS011;33568;45.286;9.900;2022-08-05T13:52:32;7.32;;;1.90;;
47804;SDS011;33568;45.286;9.900;2022-08-05T13:54:58;18.15;;;2.45;;
47804;SDS011;33568;45.286;9.900;2022-08-05T13:57:25;4.68;;;2.00;;
47804;SDS011;33568;45.286;9.900;2022-08-05T13:59:51;6.43;;;2.08;;
47804;SDS011;33568;45.286;9.900;2022-08-05T14:02:18;2.90;;;1.92;;
47804;SDS011;33568;45.286;9.900;2022-08-05T14:04:45;4.03;;;1.80;;
47804;SDS011;33568;45.286;9.900;2022-08-05T14:07:34;8.40;;;2.00;;
47804;SDS011;33568;45.286;9.900;2022-08-05T14:10:04;8.35;;;2.13;;
47804;SDS011;33568;45.286;9.900;2022-08-05T14:12:41;3.17;;;1.50;;
47804;SDS011;33568;45.286;9.900;2022-08-05T14:15:09;2.25;;;1.73;;
47804;SDS011;33568;45.286;9.900;2022-08-05T14:17:36;3.33;;;1.80;;
47804;SDS011;33568;45.286;9.900;2022-08-05T14:20:04;5.35;;;1.88;;
47804;SDS011;33568;45.286;9.900;2022-08-05T14:22:31;6.70;;;2.00;;
47804;SDS011;33568;45.286;9.900;2022-08-05T14:24:58;6.90;;;2.25;;
47804;SDS011;33568;45.286;9.900;2022-08-05T14:27:25;4.32;;;1.65;;
47804;SDS011;33568;45.286;9.900;2022-08-05T14:29:52;1.75;;;1.50;;
47804;SDS011;33568;45.286;9.900;2022-08-05T14:32:18;3.58;;;1.48;;
47804;SDS011;33568;45.286;9.900;2022-08-05T14:34:44;5.38;;;1.98;;
47804;SDS011;33568;45.286;9.900;2022-08-05T14:37:11;5.80;;;1.92;;
47804;SDS011;33568;45.286;9.900;2022-08-05T14:39:37;5.70;;;2.05;;
47804;SDS011;33568;45.286;9.900;2022-08-05T14:42:03;4.90;;;1.80;;
47804;SDS011;33568;45.286;9.900;2022-08-05T14:44:30;8.38;;;2.03;;
47804;SDS011;33568;45.286;9.900;2022-08-05T14:46:56;12.18;;;1.83;;
47804;SDS011;33568;45.286;9.900;2022-08-05T14:49:22;6.40;;;1.70;;
47804;SDS011;33568;45.286;9.900;2022-08-05T14:51:49;3.10;;;1.58;;
47804;SDS011;33568;45.286;9.900;2022-08-05T14:54:15;2.03;;;1.67;;
47804;SDS011;33568;45.286;9.900;2022-08-05T14:56:42;2.55;;;1.67;;
47804;SDS011;33568;45.286;9.900;2022-08-05T14:59:08;5.93;;;1.85;;
47804;SDS011;33568;45.286;9.900;2022-08-05T15:01:34;5.18;;;1.90;;
47804;SDS011;33568;45.286;9.900;2022-08-05T15:04:01;7.38;;;2.22;;
47804;SDS011;33568;45.286;9.900;2022-08-05T15:06:27;7.22;;;1.75;;
47804;SDS011;33568;45.286;9.900;2022-08-05T15:08:54;6.75;;;1.80;;
47804;SDS011;33568;45.286;9.900;2022-08-05T15:11:22;2.67;;;1.52;;
47804;SDS011;33568;45.286;9.900;2022-08-05T15:13:52;6.78;;;1.77;;
47804;SDS011;33568;45.286;9.900;2022-08-05T15:16:18;8.40;;;2.63;;
47804;SDS011;33568;45.286;9.900;2022-08-05T15:18:44;7.97;;;2.00;;
47804;SDS011;33568;45.286;9.900;2022-08-05T15:21:11;6.40;;;1.75;;
47804;SDS011;33568;45.286;9.900;2022-08-05T15:23:37;6.20;;;1.73;;
47804;SDS011;33568;45.286;9.900;2022-08-05T15:26:03;6.00;;;1.67;;
47804;SDS011;33568;45.286;9.900;2022-08-05T15:28:30;4.95;;;1.65;;
47804;SDS011;33568;45.286;9.900;2022-08-05T15:30:56;7.22;;;1.80;;
47804;SDS011;33568;45.286;9.900;2022-08-05T15:33:22;6.53;;;1.70;;